createdAt,value
2023-03-02T00:06:01.782Z,77.30
2023-03-02T00:16:08.743Z,77.40
2023-03-02T00:26:15.200Z,78.30
2023-03-02T00:36:23.242Z,81.70
2023-03-02T00:46:30.157Z,84.80
2023-03-02T00:56:36.956Z,80.70
2023-03-02T01:06:48.380Z,79.70
2023-03-02T01:16:54.883Z,80.80
2023-03-02T01:27:01.529Z,83.20
2023-03-02T01:37:07.837Z,84.60
2023-03-02T01:47:21.862Z,87.90
2023-03-02T01:57:31.134Z,83.20
2023-03-02T02:07:38.277Z,88.30
2023-03-02T02:17:44.711Z,89.10
2023-03-02T02:27:51.311Z,86.30
2023-03-02T02:38:08.282Z,84.40
2023-03-02T02:48:20.496Z,73.80
2023-03-02T02:58:26.771Z,68.90
2023-03-02T03:08:45.280Z,72.20
2023-03-02T03:18:52.429Z,73.30
2023-03-02T03:28:58.962Z,71.10
2023-03-02T03:39:06.896Z,67.20
2023-03-02T03:49:13.319Z,62.70
2023-03-02T03:59:24.160Z,68.20
2023-03-02T04:09:32.777Z,73.70
2023-03-02T04:19:39.104Z,68.30
2023-03-02T04:29:46.078Z,65.60
2023-03-02T04:39:53.948Z,66.20
2023-03-02T04:50:00.297Z,68.30
2023-03-02T05:00:10.989Z,70.20
2023-03-02T05:10:18.759Z,78.80
2023-03-02T05:20:32.675Z,77.70
2023-03-02T05:30:39.028Z,69.60
2023-03-02T05:40:45.678Z,67.30
2023-03-02T05:50:52.125Z,68.70
2023-03-02T06:00:58.427Z,71.30
2023-03-02T06:11:04.827Z,70.40
2023-03-02T06:21:11.328Z,85.00
2023-03-02T06:31:17.688Z,69.80
2023-03-02T06:41:24.052Z,72.00
2023-03-02T06:51:30.432Z,72.20
2023-03-02T07:01:36.888Z,65.30
2023-03-02T07:11:43.404Z,60.80
2023-03-02T07:21:50.106Z,66.20
2023-03-02T07:32:02.235Z,62.30
2023-03-02T07:42:10.076Z,62.30
2023-03-02T07:52:16.616Z,54.00
2023-03-02T08:02:23.068Z,57.20
2023-03-02T08:12:29.824Z,54.50
2023-03-02T08:22:36.713Z,57.50
2023-03-02T08:32:43.656Z,55.00
2023-03-02T08:42:51.111Z,39.90
2023-03-02T08:52:57.433Z,28.50
2023-03-02T09:03:03.996Z,25.30
2023-03-02T09:13:10.273Z,24.20
2023-03-02T09:23:16.569Z,24.70
2023-03-02T09:33:23.044Z,23.20
2023-03-02T09:43:41.397Z,20.50
2023-03-02T09:53:57.409Z,20.70
2023-03-02T10:04:23.524Z,18.10
2023-03-02T10:14:43.384Z,16.60
2023-03-02T10:25:10.477Z,18.30
2023-03-02T10:35:27.465Z,16.60
2023-03-02T10:45:40.419Z,17.10
2023-03-02T10:55:55.410Z,14.60
2023-03-02T11:06:28.444Z,15.60
2023-03-02T11:16:41.429Z,16.20
2023-03-02T11:27:03.491Z,15.90
2023-03-02T11:37:45.709Z,15.80
2023-03-02T11:48:04.158Z,18.30
2023-03-02T11:58:25.458Z,19.80
2023-03-02T12:08:42.493Z,18.70
2023-03-02T12:18:59.483Z,17.90
2023-03-02T12:29:24.527Z,19.10
2023-03-02T12:40:07.503Z,18.10
2023-03-02T12:50:29.504Z,16.70
2023-03-02T13:00:42.512Z,15.80
2023-03-02T13:11:00.527Z,15.70
2023-03-02T13:21:13.519Z,17.50
2023-03-02T13:31:28.681Z,15.50
2023-03-02T13:41:43.554Z,14.50
2023-03-02T13:59:57.897Z,13.70
2023-03-02T14:10:04.240Z,13.30
2023-03-02T14:20:15.628Z,15.70
2023-03-02T14:30:22.617Z,14.40
2023-03-02T14:40:29.582Z,18.30
2023-03-02T14:50:39.991Z,17.90
2023-03-02T15:00:46.663Z,17.50
2023-03-02T15:10:52.964Z,19.90
2023-03-02T15:20:59.341Z,16.50
2023-03-02T15:31:13.626Z,20.00
2023-03-02T15:41:20.866Z,18.60
2023-03-02T15:51:27.215Z,18.40
2023-03-02T16:01:34.978Z,23.10
2023-03-02T16:11:41.769Z,26.60
2023-03-02T16:21:49.265Z,26.40
2023-03-02T16:31:55.660Z,26.80
2023-03-02T16:42:02.141Z,27.80
2023-03-02T16:52:08.469Z,34.50
2023-03-02T17:02:14.780Z,28.20
2023-03-02T17:12:21.108Z,39.10
2023-03-02T17:22:27.485Z,49.60
2023-03-02T17:32:33.782Z,54.80
2023-03-02T17:42:40.208Z,51.60
2023-03-02T17:52:46.600Z,48.90
2023-03-02T18:02:53.407Z,66.30
2023-03-02T18:12:59.784Z,42.20
2023-03-02T18:23:06.140Z,36.20
2023-03-02T18:33:12.495Z,42.20
2023-03-02T18:43:18.830Z,42.90
2023-03-02T18:53:25.161Z,56.50
2023-03-02T19:03:32.015Z,65.10
2023-03-02T19:13:38.362Z,56.60
2023-03-02T19:23:46.509Z,58.30
2023-03-02T19:33:52.936Z,49.20
2023-03-02T19:43:59.982Z,57.50
2023-03-02T19:54:06.482Z,56.60
2023-03-02T20:04:12.828Z,61.40
2023-03-02T20:14:32.701Z,68.30
2023-03-02T20:24:40.396Z,66.00
2023-03-02T20:34:46.892Z,68.00
2023-03-02T20:44:54.051Z,67.00
2023-03-02T20:55:00.600Z,70.60
2023-03-02T21:05:07.894Z,71.50
2023-03-02T21:15:14.309Z,78.60
2023-03-02T21:25:20.929Z,86.10
2023-03-02T21:35:27.402Z,81.30
2023-03-02T21:45:34.336Z,89.10
2023-03-02T21:55:41.106Z,78.20
2023-03-02T22:05:47.485Z,73.10
2023-03-02T22:16:13.678Z,71.20
2023-03-02T22:26:20.130Z,80.00
2023-03-02T22:36:26.594Z,74.40
2023-03-02T22:46:32.945Z,75.30
2023-03-02T22:56:44.627Z,88.60
2023-03-02T23:06:56.133Z,75.40
2023-03-02T23:17:16.786Z,77.10
2023-03-02T23:27:23.186Z,74.30
2023-03-02T23:37:29.530Z,74.00
2023-03-02T23:47:36.346Z,70.80
2023-03-02T23:57:42.658Z,62.70
